Time;durP1;ratioP1;P1;durP2;ratioP2;P2;SDS_P1;SDS_P2;PMS_P1;PMS_P2;Temp;Humidity;BMP_temperature;BMP_pressure;BME280_temperature;BME280_humidity;BME280_pressure;Samples;Min_cycle;Max_cycle;Signal;HPM_P1;HPM_P2
2023/10/15 00:02:03;;;;;;;1.23;1.10;;;19.80;74.00;;;;;;5001606;28;20216;-67
2023/10/15 00:04:28;;;;;;;1.20;1.10;;;19.80;74.00;;;;;;4999765;28;20200;-67
2023/10/15 00:06:54;;;;;;;1.27;1.10;;;19.80;74.00;;;;;;4986145;28;20187;-67
2023/10/15 00:09:20;;;;;;;1.65;1.20;;;19.80;74.00;;;;;;5002123;28;20269;-67
2023/10/15 00:11:45;;;;;;;1.70;1.10;;;19.80;74.00;;;;;;5001888;28;20196;-67
2023/10/15 00:14:11;;;;;;;1.48;1.30;;;19.80;73.90;;;;;;4988670;28;20188;-67
2023/10/15 00:16:38;;;;;;;2.20;1.30;;;19.80;73.90;;;;;;4987639;28;20188;-67
2023/10/15 00:19:10;;;;;;;1.75;1.02;;;19.80;73.90;;;;;;4993150;28;20201;-68
2023/10/15 00:21:38;;;;;;;1.65;1.10;;;19.80;73.90;;;;;;4997584;28;20212;-67
2023/10/15 00:24:07;;;;;;;1.45;0.90;;;19.80;73.80;;;;;;5000691;28;20189;-67
2023/10/15 00:26:34;;;;;;;2.45;1.45;;;19.80;73.70;;;;;;4967079;28;20188;-67
2023/10/15 00:29:00;;;;;;;1.30;1.20;;;19.80;73.60;;;;;;5001234;28;20189;-67
2023/10/15 00:31:28;;;;;;;2.08;1.20;;;19.80;73.70;;;;;;5002202;28;20221;-67
2023/10/15 00:33:54;;;;;;;1.40;1.25;;;19.80;73.70;;;;;;4988548;28;20192;-67
2023/10/15 00:36:19;;;;;;;0.88;0.88;;;19.80;73.60;;;;;;4964751;28;20208;-67
2023/10/15 00:38:45;;;;;;;1.30;1.00;;;19.80;73.60;;;;;;4978916;28;20192;-67
2023/10/15 00:41:13;;;;;;;1.67;1.25;;;19.80;73.40;;;;;;4988906;28;20308;-67
2023/10/15 00:43:55;;;;;;;1.75;1.20;;;19.80;73.60;;;;;;4987215;28;20191;-67
2023/10/15 00:46:24;;;;;;;2.33;1.10;;;19.70;73.60;;;;;;5000136;28;20190;-67
2023/10/15 00:48:51;;;;;;;1.10;1.00;;;19.80;73.70;;;;;;4984787;28;20203;-67
2023/10/15 00:51:20;;;;;;;1.23;1.13;;;19.70;73.60;;;;;;5000421;28;20216;-67
2023/10/15 00:53:58;;;;;;;1.48;1.10;;;19.70;73.60;;;;;;4985483;28;20717;-67
2023/10/15 00:56:35;;;;;;;1.60;1.20;;;19.80;73.60;;;;;;5002756;28;20215;-68
2023/10/15 00:59:08;;;;;;;1.40;1.10;;;19.80;73.60;;;;;;4999021;28;20203;-67
2023/10/15 01:01:38;;;;;;;1.92;1.30;;;19.70;73.50;;;;;;4998566;28;20298;-67
2023/10/15 01:04:09;;;;;;;2.03;1.25;;;19.70;73.40;;;;;;4983012;28;20272;-67
2023/10/15 01:11:50;;;;;;;1.05;0.90;;;19.70;73.10;;;;;;4997061;28;20203;-67
2023/10/15 01:14:26;;;;;;;1.45;1.10;;;19.70;73.30;;;;;;4995496;28;20184;-67
2023/10/15 01:16:53;;;;;;;1.65;1.20;;;19.70;73.40;;;;;;4983597;28;20192;-67
2023/10/15 01:19:20;;;;;;;1.35;1.13;;;19.70;73.40;;;;;;4999282;28;20197;-67
2023/10/15 01:21:57;;;;;;;1.33;1.00;;;19.70;73.30;;;;;;5000492;28;20215;-68
2023/10/15 01:24:26;;;;;;;1.30;1.00;;;19.70;73.30;;;;;;4986426;28;20187;-67
2023/10/15 01:27:09;;;;;;;2.80;1.50;;;19.70;73.40;;;;;;4998071;28;20209;-67
2023/10/15 01:29:40;;;;;;;1.65;1.10;;;19.70;73.40;;;;;;5002674;28;20202;-67
2023/10/15 01:32:10;;;;;;;1.02;0.93;;;19.70;73.20;;;;;;4991394;28;20219;-67
2023/10/15 01:34:37;;;;;;;1.23;1.13;;;19.70;73.20;;;;;;4968833;28;20317;-67
2023/10/15 01:37:14;;;;;;;0.82;0.80;;;19.70;73.10;;;;;;4996778;28;20304;-67
2023/10/15 01:39:40;;;;;;;1.52;1.20;;;19.70;72.90;;;;;;4995295;28;20298;-68
2023/10/15 01:42:07;;;;;;;1.48;1.10;;;19.70;73.10;;;;;;4998032;28;20264;-68
2023/10/15 01:44:39;;;;;;;1.08;0.88;;;19.70;73.20;;;;;;4997721;28;20548;-67
2023/10/15 01:49:33;;;;;;;1.98;1.20;;;19.70;73.10;;;;;;5002687;28;20185;-67
2023/10/15 01:52:09;;;;;;;0.95;0.82;;;19.70;73.20;;;;;;4968654;28;20219;-67
2023/10/15 01:54:37;;;;;;;1.23;1.13;;;19.70;73.20;;;;;;4984151;28;20271;-67
2023/10/15 01:57:09;;;;;;;1.15;1.00;;;19.70;73.30;;;;;;4984415;28;20246;-67
2023/10/15 01:59:45;;;;;;;1.17;1.00;;;19.70;73.20;;;;;;4986542;28;20219;-68
2023/10/15 02:02:17;;;;;;;1.85;1.30;;;19.70;73.20;;;;;;4977682;28;20219;-67
2023/10/15 02:04:46;;;;;;;1.38;1.10;;;19.70;73.10;;;;;;4967903;28;20212;-67
2023/10/15 02:07:17;;;;;;;1.00;1.00;;;19.60;73.00;;;;;;4984012;28;20196;-67
2023/10/15 02:09:44;;;;;;;0.98;0.85;;;19.70;72.90;;;;;;4996866;28;20204;-67
2023/10/15 02:12:19;;;;;;;1.30;1.20;;;19.70;72.90;;;;;;4995732;28;20200;-67
2023/10/15 02:14:48;;;;;;;1.13;0.88;;;19.60;72.80;;;;;;4977181;28;20191;-67
2023/10/15 02:17:18;;;;;;;1.55;1.00;;;19.70;73.00;;;;;;4992796;28;20189;-67
2023/10/15 02:19:47;;;;;;;1.50;1.30;;;19.60;72.90;;;;;;4975930;28;20208;-67
2023/10/15 02:22:13;;;;;;;1.33;1.13;;;19.70;73.10;;;;;;4982351;28;20260;-67
2023/10/15 02:24:46;;;;;;;1.42;1.10;;;19.60;72.90;;;;;;4979064;28;20272;-67
2023/10/15 02:27:23;;;;;;;1.58;1.00;;;19.70;73.10;;;;;;4981640;28;20204;-70
2023/10/15 02:29:50;;;;;;;1.00;0.90;;;19.60;73.00;;;;;;4999917;28;20353;-68
2023/10/15 02:34:54;;;;;;;1.58;1.02;;;19.60;72.90;;;;;;4996230;28;20588;-68
2023/10/15 02:37:27;;;;;;;2.10;1.30;;;19.60;72.90;;;;;;4998082;28;20201;-67
2023/10/15 02:39:57;;;;;;;1.00;0.90;;;19.60;72.90;;;;;;4997015;28;20208;-67
2023/10/15 02:42:35;;;;;;;1.10;1.00;;;19.60;72.80;;;;;;4994861;28;20223;-69
2023/10/15 02:45:06;;;;;;;1.13;1.02;;;19.60;72.70;;;;;;4962487;28;20196;-67
2023/10/15 02:47:31;;;;;;;1.23;1.00;;;19.60;72.50;;;;;;4996581;28;20220;-67
2023/10/15 02:50:03;;;;;;;1.38;1.10;;;19.60;72.70;;;;;;4976220;28;20236;-68
2023/10/15 02:52:42;;;;;;;1.50;1.02;;;19.60;72.90;;;;;;4996097;28;20195;-67
2023/10/15 02:55:11;;;;;;;1.20;1.10;;;19.60;72.90;;;;;;4985613;28;20227;-67
2023/10/15 02:57:38;;;;;;;1.30;0.95;;;19.60;72.80;;;;;;4995594;28;20247;-67
2023/10/15 03:00:35;;;;;;;1.55;1.25;;;19.60;72.90;;;;;;4980166;28;20205;-67
2023/10/15 03:03:09;;;;;;;1.52;0.93;;;19.60;72.90;;;;;;4992369;28;20262;-67
2023/10/15 03:05:42;;;;;;;1.10;0.88;;;19.60;72.70;;;;;;4980169;28;20188;-67
2023/10/15 03:08:17;;;;;;;1.70;1.15;;;19.60;72.50;;;;;;4980111;28;20287;-67
2023/10/15 03:10:55;;;;;;;1.50;1.10;;;19.60;72.70;;;;;;4971713;28;20204;-67
2023/10/15 03:13:21;;;;;;;1.48;1.10;;;19.60;72.50;;;;;;4966015;28;20704;-68
2023/10/15 03:15:50;;;;;;;0.93;0.90;;;19.60;72.60;;;;;;5005555;28;20215;-67
2023/10/15 03:18:23;;;;;;;1.10;0.90;;;19.60;72.60;;;;;;4971233;28;20279;-67
2023/10/15 03:20:57;;;;;;;1.40;0.90;;;19.60;72.80;;;;;;4995535;28;20280;-68
2023/10/15 03:23:23;;;;;;;0.90;0.90;;;19.60;72.70;;;;;;4974604;28;20185;-67
2023/10/15 03:25:58;;;;;;;1.00;0.90;;;19.60;72.80;;;;;;4981488;28;20182;-67
2023/10/15 03:28:25;;;;;;;1.25;1.00;;;19.60;72.80;;;;;;4995583;28;20180;-67
2023/10/15 03:30:56;;;;;;;1.00;0.90;;;19.60;72.70;;;;;;4996715;28;20208;-67
2023/10/15 03:33:23;;;;;;;1.60;1.00;;;19.60;72.60;;;;;;4994434;28;20189;-67
2023/10/15 03:35:56;;;;;;;1.38;0.80;;;19.60;72.50;;;;;;4968454;28;20191;-68
2023/10/15 03:38:32;;;;;;;1.20;0.98;;;19.60;72.50;;;;;;4992940;28;20805;-68
2023/10/15 03:41:11;;;;;;;1.33;1.05;;;19.60;72.50;;;;;;4971689;28;20272;-67
2023/10/15 03:43:37;;;;;;;1.42;0.90;;;19.60;73.30;;;;;;4960012;28;20247;-67
2023/10/15 03:49:04;;;;;;;1.83;1.20;;;19.60;72.50;;;;;;4948610;28;20204;-67
2023/10/15 03:51:30;;;;;;;0.90;0.90;;;19.60;72.50;;;;;;4960708;28;20209;-68
2023/10/15 03:53:58;;;;;;;1.63;1.20;;;19.60;72.70;;;;;;4990679;28;20192;-68
2023/10/15 03:56:30;;;;;;;1.75;1.08;;;19.60;72.50;;;;;;4995433;28;20189;-68
2023/10/15 03:58:55;;;;;;;0.77;0.77;;;19.60;72.50;;;;;;4978909;28;20687;-67
2023/10/15 04:01:22;;;;;;;1.27;0.88;;;19.60;72.50;;;;;;4992259;28;20227;-67
2023/10/15 04:03:48;;;;;;;2.05;1.20;;;19.60;72.50;;;;;;4993358;28;20223;-67
2023/10/15 04:06:16;;;;;;;0.80;0.80;;;19.60;72.50;;;;;;4977746;28;20189;-67
2023/10/15 04:11:30;;;;;;;1.38;1.10;;;19.60;72.50;;;;;;4994905;28;20235;-67
2023/10/15 04:14:11;;;;;;;0.80;0.80;;;19.60;72.50;;;;;;4994416;28;20194;-68
2023/10/15 04:16:37;;;;;;;1.05;0.90;;;19.60;72.50;;;;;;4974445;28;20740;-67
2023/10/15 04:19:03;;;;;;;1.00;0.88;;;19.60;72.70;;;;;;4992709;28;20193;-68
2023/10/15 04:21:29;;;;;;;1.30;0.98;;;19.60;72.50;;;;;;4976059;28;20228;-67
2023/10/15 04:23:56;;;;;;;1.15;1.00;;;19.60;72.50;;;;;;4992149;28;20195;-68
2023/10/15 04:26:28;;;;;;;1.00;0.73;;;19.50;72.70;;;;;;4993311;28;20185;-67
2023/10/15 04:28:54;;;;;;;1.60;1.02;;;19.60;72.70;;;;;;4974477;28;20246;-67
2023/10/15 04:31:22;;;;;;;1.25;0.90;;;19.60;72.50;;;;;;4991754;28;20212;-68
2023/10/15 04:33:54;;;;;;;1.20;1.10;;;19.60;72.50;;;;;;4992888;28;20230;-67
2023/10/15 04:36:20;;;;;;;1.63;0.82;;;19.60;72.50;;;;;;4994227;28;20257;-67
2023/10/15 04:38:46;;;;;;;1.00;0.90;;;19.60;72.50;;;;;;4977565;28;20223;-67
2023/10/15 04:41:21;;;;;;;1.05;0.93;;;19.60;72.50;;;;;;4992881;28;20216;-67
2023/10/15 04:43:47;;;;;;;1.17;0.90;;;19.50;72.40;;;;;;4994754;28;20198;-67
2023/10/15 04:46:25;;;;;;;0.70;0.70;;;19.60;72.50;;;;;;4998610;28;20243;-67
2023/10/15 04:48:51;;;;;;;1.35;0.95;;;19.50;72.40;;;;;;4989444;28;20189;-67
2023/10/15 04:51:18;;;;;;;1.00;0.90;;;19.50;72.40;;;;;;4975265;28;20208;-67
2023/10/15 04:53:44;;;;;;;1.25;0.77;;;19.50;72.40;;;;;;4994598;28;20672;-68
2023/10/15 04:56:11;;;;;;;1.35;0.80;;;19.50;72.40;;;;;;4973905;28;20185;-68
2023/10/15 04:58:37;;;;;;;1.73;1.00;;;19.50;72.40;;;;;;4990703;28;20653;-67
2023/10/15 05:01:06;;;;;;;1.15;0.80;;;19.60;72.50;;;;;;4991984;28;20220;-67
2023/10/15 05:03:33;;;;;;;1.08;0.80;;;19.50;72.40;;;;;;4975118;28;20193;-67
2023/10/15 05:06:03;;;;;;;0.98;0.90;;;19.50;72.40;;;;;;4978990;28;20185;-67
2023/10/15 05:08:30;;;;;;;1.02;0.90;;;19.50;72.40;;;;;;4961098;28;20185;-67
2023/10/15 05:10:56;;;;;;;1.00;0.65;;;19.50;72.40;;;;;;4978966;28;20209;-70
2023/10/15 05:13:22;;;;;;;1.10;1.00;;;19.50;72.40;;;;;;4992536;28;20196;-67
2023/10/15 05:15:48;;;;;;;1.00;0.90;;;19.50;72.40;;;;;;4994377;28;20193;-67
2023/10/15 05:18:15;;;;;;;0.80;0.73;;;19.50;72.40;;;;;;4995418;28;20268;-67
2023/10/15 05:20:43;;;;;;;1.35;0.90;;;19.50;72.40;;;;;;4979593;28;20212;-68
2023/10/15 05:23:09;;;;;;;2.15;1.15;;;19.50;72.40;;;;;;4996378;28;20187;-67
2023/10/15 05:25:35;;;;;;;1.35;1.00;;;19.50;72.40;;;;;;4995485;28;20232;-68
2023/10/15 05:28:01;;;;;;;0.88;0.80;;;19.50;72.40;;;;;;4970099;28;20181;-67
2023/10/15 05:30:26;;;;;;;1.08;0.63;;;19.50;72.40;;;;;;4995342;28;20704;-67
2023/10/15 05:32:53;;;;;;;0.85;0.85;;;19.50;72.40;;;;;;4967383;28;20217;-67
2023/10/15 05:35:19;;;;;;;1.00;1.00;;;19.50;72.40;;;;;;4998270;28;20201;-67
2023/10/15 05:37:45;;;;;;;0.82;0.80;;;19.50;72.40;;;;;;4983077;28;20218;-67
2023/10/15 05:40:17;;;;;;;0.90;0.90;;;19.50;72.40;;;;;;4991758;28;20220;-67
2023/10/15 05:42:43;;;;;;;1.30;0.90;;;19.50;72.40;;;;;;4994435;28;20581;-67
2023/10/15 05:45:09;;;;;;;0.85;0.82;;;19.50;72.60;;;;;;4993969;28;20197;-67
2023/10/15 05:47:36;;;;;;;1.00;0.88;;;19.50;73.20;;;;;;4994178;28;20192;-67
2023/10/15 05:50:05;;;;;;;1.60;0.90;;;19.50;72.50;;;;;;4986262;28;20239;-67
2023/10/15 05:52:32;;;;;;;1.20;1.10;;;19.50;72.40;;;;;;4990819;28;20189;-67
2023/10/15 05:55:00;;;;;;;1.10;1.00;;;19.50;72.40;;;;;;4993223;28;20208;-67
2023/10/15 05:57:26;;;;;;;0.60;0.60;;;19.50;72.40;;;;;;4993998;28;20199;-68
2023/10/15 05:59:51;;;;;;;0.70;0.70;;;19.50;72.40;;;;;;4993062;28;20222;-67
2023/10/15 06:02:17;;;;;;;1.77;0.98;;;19.50;72.40;;;;;;4995077;28;20260;-67
2023/10/15 06:04:43;;;;;;;0.85;0.80;;;19.50;72.40;;;;;;4991310;28;20193;-67
2023/10/15 06:07:13;;;;;;;0.80;0.80;;;19.50;72.40;;;;;;4990432;28;20181;-67
2023/10/15 06:09:39;;;;;;;1.02;1.00;;;19.50;72.40;;;;;;4987008;28;20241;-68
2023/10/15 06:12:06;;;;;;;1.58;0.88;;;19.50;72.40;;;;;;4993240;28;20185;-67
2023/10/15 06:14:33;;;;;;;2.53;1.15;;;19.50;72.40;;;;;;4989750;28;20185;-67
2023/10/15 06:16:59;;;;;;;0.90;0.90;;;19.50;72.40;;;;;;4994966;28;20196;-67
2023/10/15 06:19:26;;;;;;;1.15;1.00;;;19.50;72.40;;;;;;4981881;28;20276;-68
2023/10/15 06:21:52;;;;;;;1.00;0.90;;;19.50;72.40;;;;;;4996001;28;20221;-67
2023/10/15 06:24:18;;;;;;;0.90;0.90;;;19.50;72.40;;;;;;4980745;28;20188;-67
2023/10/15 06:26:44;;;;;;;1.88;1.33;;;19.50;72.40;;;;;;4958312;28;20190;-67
2023/10/15 06:29:10;;;;;;;1.70;1.10;;;19.50;72.40;;;;;;4992650;28;20189;-67
2023/10/15 06:31:37;;;;;;;1.30;1.20;;;19.50;72.40;;;;;;4980351;28;20707;-66
2023/10/15 06:34:03;;;;;;;1.60;1.48;;;19.50;72.40;;;;;;4979797;28;20188;-67
2023/10/15 06:36:29;;;;;;;1.52;1.40;;;19.50;72.50;;;;;;4992712;28;20300;-67
2023/10/15 06:38:56;;;;;;;1.40;1.30;;;19.50;72.50;;;;;;4995714;28;20647;-67
2023/10/15 06:41:24;;;;;;;1.65;1.50;;;19.50;72.40;;;;;;5013213;28;20220;-67
2023/10/15 06:43:50;;;;;;;1.50;1.40;;;19.50;72.40;;;;;;4994206;28;20188;-67
2023/10/15 06:46:16;;;;;;;1.40;1.30;;;19.50;72.40;;;;;;5008735;28;20188;-66
2023/10/15 06:48:42;;;;;;;1.40;1.30;;;19.50;72.40;;;;;;4993799;28;20280;-68
2023/10/15 06:51:09;;;;;;;1.50;1.40;;;19.50;72.40;;;;;;4996463;28;20204;-67
2023/10/15 06:53:35;;;;;;;1.40;1.30;;;19.50;72.40;;;;;;4977376;28;20569;-67
2023/10/15 06:56:03;;;;;;;1.33;1.20;;;19.50;72.40;;;;;;5003620;28;20192;-67
2023/10/15 06:58:35;;;;;;;2.03;1.38;;;19.50;72.40;;;;;;4987700;28;20664;-67
2023/10/15 07:01:02;;;;;;;1.33;1.23;;;19.50;72.40;;;;;;4983983;28;20209;-67
2023/10/15 07:03:28;;;;;;;2.47;1.30;;;19.50;72.40;;;;;;4984633;28;20185;-67
2023/10/15 07:05:54;;;;;;;1.20;1.10;;;19.60;72.50;;;;;;4968554;28;20184;-67
2023/10/15 07:08:20;;;;;;;2.33;1.38;;;19.50;72.40;;;;;;5001853;28;20212;-67
2023/10/15 07:10:46;;;;;;;1.40;1.30;;;19.60;72.50;;;;;;4993339;28;20208;-68
2023/10/15 07:13:12;;;;;;;1.65;1.23;;;19.50;72.40;;;;;;4997347;28;20606;-67
2023/10/15 07:15:38;;;;;;;1.63;1.40;;;19.50;72.40;;;;;;4978711;28;20218;-68
2023/10/15 07:18:05;;;;;;;1.63;1.23;;;19.60;72.50;;;;;;5007670;28;20193;-67
2023/10/15 07:20:31;;;;;;;1.40;1.30;;;19.50;72.40;;;;;;5000697;28;20223;-67
2023/10/15 07:23:00;;;;;;;1.52;1.20;;;19.60;73.50;;;;;;5000365;28;20209;-67
2023/10/15 07:25:29;;;;;;;1.45;1.35;;;19.60;72.90;;;;;;5000929;28;20196;-67
2023/10/15 07:27:58;;;;;;;1.58;1.30;;;19.50;72.70;;;;;;5006125;28;20206;-67
2023/10/15 07:30:28;;;;;;;1.25;1.15;;;19.50;72.70;;;;;;4988299;28;20218;-67
2023/10/15 07:32:57;;;;;;;1.20;1.10;;;19.50;72.60;;;;;;4982977;28;20200;-67
2023/10/15 07:35:26;;;;;;;0.95;0.85;;;19.50;72.70;;;;;;5006008;28;20176;-67
2023/10/15 07:37:52;;;;;;;1.13;1.10;;;19.50;72.70;;;;;;4982640;28;20193;-68
2023/10/15 07:40:22;;;;;;;1.48;1.30;;;19.50;72.80;;;;;;4998995;28;20215;-67
2023/10/15 07:42:54;;;;;;;1.20;1.10;;;19.50;72.70;;;;;;4978100;28;20349;-67
2023/10/15 07:45:26;;;;;;;2.35;1.45;;;19.50;72.70;;;;;;4985361;28;20273;-67
2023/10/15 07:47:54;;;;;;;1.10;0.98;;;19.50;72.70;;;;;;4997028;28;20223;-67
2023/10/15 07:50:23;;;;;;;1.90;1.10;;;19.50;72.70;;;;;;5002982;28;20211;-67
2023/10/15 07:52:53;;;;;;;1.33;1.15;;;19.50;72.70;;;;;;5010199;28;20246;-67
2023/10/15 07:55:23;;;;;;;1.80;1.27;;;19.50;72.60;;;;;;4986487;28;20181;-67
2023/10/15 07:57:51;;;;;;;1.40;1.30;;;19.50;72.70;;;;;;4975369;28;20239;-67
2023/10/15 08:00:23;;;;;;;1.10;1.00;;;19.50;72.70;;;;;;5004770;28;20275;-67
2023/10/15 08:02:53;;;;;;;1.55;1.33;;;19.50;72.80;;;;;;5006450;28;20216;-68
2023/10/15 08:05:22;;;;;;;1.15;1.05;;;19.50;72.80;;;;;;4985710;28;20570;-67
2023/10/15 08:07:50;;;;;;;1.60;1.50;;;19.60;72.90;;;;;;4988797;28;20180;-67
2023/10/15 08:10:17;;;;;;;1.38;1.10;;;19.50;72.70;;;;;;4988316;28;20200;-67
2023/10/15 08:12:44;;;;;;;0.90;0.90;;;19.60;72.80;;;;;;4998139;28;20189;-67
2023/10/15 08:15:11;;;;;;;1.00;0.90;;;19.60;72.80;;;;;;4992039;28;20280;-64
2023/10/15 08:17:36;;;;;;;1.30;1.20;;;19.60;72.50;;;;;;5008156;28;20191;-66
2023/10/15 08:20:04;;;;;;;0.98;0.98;;;19.60;72.60;;;;;;4965467;28;20213;-67
2023/10/15 08:22:30;;;;;;;1.27;1.17;;;19.60;72.80;;;;;;4977558;28;20217;-68
2023/10/15 08:24:55;;;;;;;1.15;1.02;;;19.60;72.80;;;;;;5005442;28;20184;-66
2023/10/15 08:27:21;;;;;;;1.33;1.13;;;19.60;72.80;;;;;;4987980;28;20242;-66
2023/10/15 08:29:47;;;;;;;1.38;1.05;;;19.60;72.80;;;;;;5006042;28;20262;-67
2023/10/15 08:32:16;;;;;;;0.98;0.90;;;19.60;72.80;;;;;;5008876;28;20208;-67
2023/10/15 08:34:47;;;;;;;1.38;1.02;;;19.60;72.90;;;;;;4987770;28;20236;-67
2023/10/15 08:37:13;;;;;;;2.25;0.90;;;19.60;72.80;;;;;;4992287;28;20185;-67
2023/10/15 08:39:40;;;;;;;2.88;1.10;;;19.60;72.80;;;;;;4997997;28;20208;-68
2023/10/15 08:42:30;;;;;;;2.03;0.98;;;19.60;72.80;;;;;;5004298;28;20248;-67
2023/10/15 08:44:59;;;;;;;1.15;1.05;;;19.60;72.80;;;;;;4998509;28;20192;-66
2023/10/15 08:47:25;;;;;;;1.38;0.90;;;19.60;72.90;;;;;;4995210;28;20187;-67
2023/10/15 08:49:53;;;;;;;0.98;0.90;;;19.60;72.70;;;;;;4982331;28;20292;-66
2023/10/15 08:52:20;;;;;;;1.00;0.90;;;19.60;72.80;;;;;;4984433;28;20189;-66
2023/10/15 08:54:46;;;;;;;1.75;1.10;;;19.60;72.80;;;;;;4977217;28;20181;-66
2023/10/15 08:57:14;;;;;;;1.48;0.95;;;19.60;72.70;;;;;;4992751;28;20190;-67
2023/10/15 08:59:43;;;;;;;4.50;0.82;;;19.60;72.80;;;;;;4989592;28;20282;-67
2023/10/15 09:02:09;;;;;;;1.25;1.15;;;19.60;72.90;;;;;;5005146;28;20216;-66
2023/10/15 09:04:35;;;;;;;1.63;0.98;;;19.60;72.90;;;;;;4986603;28;20184;-67
2023/10/15 09:07:03;;;;;;;1.55;1.20;;;19.60;72.90;;;;;;4974273;28;20189;-67
2023/10/15 09:09:30;;;;;;;1.15;0.98;;;19.60;73.00;;;;;;4997708;28;20193;-67
2023/10/15 09:11:56;;;;;;;1.17;1.13;;;19.60;73.00;;;;;;4986459;28;20215;-67
2023/10/15 09:14:45;;;;;;;1.63;1.02;;;19.60;73.00;;;;;;5000310;28;20193;-67
2023/10/15 09:17:16;;;;;;;1.45;1.10;;;19.60;73.00;;;;;;5003570;28;20189;-67
2023/10/15 09:19:49;;;;;;;1.23;1.10;;;19.60;73.00;;;;;;4988277;28;20270;-67
2023/10/15 09:22:15;;;;;;;1.10;0.95;;;19.60;73.00;;;;;;4982683;28;20216;-67
2023/10/15 09:24:45;;;;;;;2.15;0.85;;;19.60;73.00;;;;;;5000878;28;20199;-67
2023/10/15 09:27:13;;;;;;;2.20;0.98;;;19.60;73.00;;;;;;4987910;28;20672;-67
2023/10/15 09:29:40;;;;;;;0.80;0.80;;;19.70;73.10;;;;;;4999369;28;20212;-66
2023/10/15 09:32:06;;;;;;;1.08;0.70;;;19.70;73.10;;;;;;4965275;28;20185;-66
2023/10/15 09:34:37;;;;;;;1.00;0.90;;;19.60;72.90;;;;;;5006301;28;20679;-67
2023/10/15 09:37:07;;;;;;;1.90;0.95;;;19.70;73.20;;;;;;4978498;28;20181;-65
2023/10/15 09:39:35;;;;;;;0.75;0.75;;;19.70;73.20;;;;;;4977518;28;20211;-67
2023/10/15 09:42:03;;;;;;;1.42;0.80;;;19.60;73.00;;;;;;4958668;28;20232;-66
2023/10/15 09:44:32;;;;;;;1.60;0.90;;;19.60;73.10;;;;;;4980727;28;20283;-67
2023/10/15 09:46:59;;;;;;;1.27;1.10;;;19.70;73.20;;;;;;4975104;28;20243;-67
2023/10/15 09:49:31;;;;;;;2.90;1.50;;;19.70;73.20;;;;;;4994293;28;20180;-68
2023/10/15 09:52:01;;;;;;;1.67;1.23;;;19.70;73.20;;;;;;4976979;28;20188;-69
2023/10/15 09:54:31;;;;;;;1.33;1.23;;;19.70;73.20;;;;;;4993932;28;20189;-68
2023/10/15 09:57:00;;;;;;;1.58;1.17;;;19.70;73.20;;;;;;5000063;28;20220;-68
2023/10/15 09:59:26;;;;;;;1.10;1.00;;;19.70;73.20;;;;;;5001758;28;20314;-68
2023/10/15 10:01:56;;;;;;;1.13;1.00;;;19.70;73.10;;;;;;4982761;28;20296;-69
2023/10/15 10:05:16;;;;;;;1.15;0.90;;;19.70;73.10;;;;;;5006057;28;20318;-68
2023/10/15 10:08:08;;;;;;;1.00;0.90;;;19.70;73.10;;;;;;4999830;28;20200;-69
2023/10/15 10:11:22;;;;;;;1.95;1.02;;;19.70;73.30;;;;;;5002445;28;20227;-69
2023/10/15 10:14:25;;;;;;;1.10;1.00;;;19.70;73.30;;;;;;4998226;28;20636;-68
2023/10/15 10:16:53;;;;;;;1.65;0.70;;;19.70;73.30;;;;;;4997152;28;20351;-69
2023/10/15 10:19:20;;;;;;;1.38;0.95;;;19.70;73.50;;;;;;4999352;28;20232;-69
2023/10/15 10:21:47;;;;;;;1.05;0.75;;;19.70;73.60;;;;;;5004919;28;20244;-68
2023/10/15 10:24:16;;;;;;;0.77;0.77;;;19.70;73.60;;;;;;5007422;28;20174;-68
2023/10/15 10:26:47;;;;;;;1.17;0.90;;;19.70;73.50;;;;;;5004730;28;20207;-68
2023/10/15 10:29:14;;;;;;;1.27;1.00;;;19.70;73.50;;;;;;4991694;28;20184;-68
2023/10/15 10:31:41;;;;;;;0.90;0.80;;;19.70;73.50;;;;;;5001383;28;20350;-69
2023/10/15 10:34:06;;;;;;;2.22;1.05;;;19.70;73.50;;;;;;5009520;28;20284;-69
2023/10/15 10:36:38;;;;;;;2.65;0.90;;;19.70;73.50;;;;;;4992240;28;20200;-69
2023/10/15 10:39:17;;;;;;;2.45;0.90;;;19.70;73.40;;;;;;4991846;28;20193;-69
2023/10/15 10:41:51;;;;;;;1.77;0.80;;;19.60;73.40;;;;;;4986608;28;20285;-69
2023/10/15 10:44:22;;;;;;;2.83;0.90;;;19.60;73.40;;;;;;4996574;28;20185;-69
2023/10/15 10:46:50;;;;;;;0.65;0.60;;;19.60;73.40;;;;;;4991864;28;20285;-69
2023/10/15 10:49:17;;;;;;;2.08;0.90;;;19.60;73.40;;;;;;4999663;28;20301;-69
2023/10/15 10:52:15;;;;;;;2.10;0.93;;;19.60;73.30;;;;;;5000616;28;20686;-69
2023/10/15 10:54:42;;;;;;;1.08;0.80;;;19.60;73.40;;;;;;4990953;28;20200;-68
2023/10/15 10:57:08;;;;;;;2.30;1.00;;;19.70;73.50;;;;;;4991007;28;20239;-69
2023/10/15 10:59:36;;;;;;;1.58;0.80;;;19.60;73.40;;;;;;5006006;28;20184;-69
2023/10/15 11:02:06;;;;;;;1.23;1.10;;;19.70;73.50;;;;;;4998289;28;20220;-69
2023/10/15 11:04:32;;;;;;;0.80;0.80;;;19.60;73.30;;;;;;4983201;28;20177;-68
2023/10/15 11:06:58;;;;;;;0.98;0.85;;;19.60;73.40;;;;;;4982818;28;20274;-68
2023/10/15 11:09:25;;;;;;;1.23;1.08;;;19.60;73.40;;;;;;4984968;28;20189;-69
2023/10/15 11:11:58;;;;;;;0.93;0.82;;;19.70;73.50;;;;;;4997685;28;20192;-69
2023/10/15 11:14:27;;;;;;;1.25;0.70;;;19.70;73.50;;;;;;4985149;28;20232;-68
2023/10/15 11:16:55;;;;;;;2.40;0.90;;;19.60;73.30;;;;;;5004542;28;20208;-69
2023/10/15 11:19:30;;;;;;;0.90;0.80;;;19.60;73.40;;;;;;4982641;28;20220;-69
2023/10/15 11:21:56;;;;;;;1.90;0.95;;;19.70;73.60;;;;;;4992941;28;20258;-68
2023/10/15 11:24:24;;;;;;;1.75;0.77;;;19.60;73.30;;;;;;4979555;28;20595;-70
2023/10/15 11:26:54;;;;;;;2.58;1.00;;;19.60;73.40;;;;;;4999613;28;20242;-68
2023/10/15 11:29:22;;;;;;;0.95;0.88;;;19.60;73.40;;;;;;4995730;28;20196;-71
2023/10/15 11:31:55;;;;;;;2.35;1.15;;;19.60;73.40;;;;;;4975387;28;20273;-69
2023/10/15 11:34:24;;;;;;;1.27;0.90;;;19.60;73.50;;;;;;4993435;28;20204;-69
2023/10/15 11:36:55;;;;;;;2.08;1.00;;;19.60;73.40;;;;;;4995701;28;20200;-69
2023/10/15 11:39:25;;;;;;;1.42;1.17;;;19.60;73.50;;;;;;4983413;28;20275;-68
2023/10/15 11:41:55;;;;;;;3.33;0.90;;;19.60;73.30;;;;;;5001280;28;20223;-69
2023/10/15 11:44:26;;;;;;;0.93;0.80;;;19.60;73.30;;;;;;5003692;28;20199;-68
2023/10/15 11:46:56;;;;;;;1.00;0.90;;;19.60;73.30;;;;;;4967535;28;20209;-68
2023/10/15 11:49:24;;;;;;;1.10;0.93;;;19.60;73.30;;;;;;4997662;28;20216;-69
2023/10/15 11:51:58;;;;;;;1.80;1.13;;;19.60;73.40;;;;;;4979923;28;20189;-69
2023/10/15 11:54:30;;;;;;;2.17;1.27;;;19.60;73.40;;;;;;5000261;28;20695;-69
2023/10/15 11:57:00;;;;;;;1.90;1.20;;;19.60;73.30;;;;;;4998624;28;20280;-69
2023/10/15 11:59:27;;;;;;;1.13;0.98;;;19.60;73.30;;;;;;5005091;28;20530;-68
2023/10/15 12:01:53;;;;;;;1.27;0.80;;;19.70;73.50;;;;;;5001598;28;20212;-69
2023/10/15 12:04:20;;;;;;;1.00;0.90;;;19.60;73.40;;;;;;4986406;28;20223;-69
2023/10/15 12:06:47;;;;;;;2.28;1.00;;;19.60;73.50;;;;;;5001188;28;20199;-69
2023/10/15 12:09:16;;;;;;;1.17;0.93;;;19.60;73.40;;;;;;4985103;28;20184;-70
2023/10/15 12:11:44;;;;;;;2.10;1.00;;;19.60;73.40;;;;;;4997545;28;20204;-69
2023/10/15 12:14:11;;;;;;;1.55;1.08;;;19.60;74.10;;;;;;4996412;28;20193;-69
2023/10/15 12:16:40;;;;;;;1.23;0.93;;;19.60;73.50;;;;;;5004997;28;20187;-68
2023/10/15 12:19:09;;;;;;;2.50;1.05;;;19.60;73.40;;;;;;4984121;28;20189;-69
2023/10/15 12:21:39;;;;;;;1.75;0.98;;;19.60;73.30;;;;;;5003053;28;20262;-69
2023/10/15 12:24:08;;;;;;;2.35;1.40;;;19.60;73.30;;;;;;4981122;28;20185;-69
2023/10/15 12:26:35;;;;;;;1.75;1.00;;;19.60;73.30;;;;;;4997529;28;20200;-69
2023/10/15 12:29:03;;;;;;;2.05;0.90;;;19.60;73.30;;;;;;5002012;28;20275;-69
2023/10/15 12:31:32;;;;;;;1.10;1.00;;;19.60;73.30;;;;;;5001714;28;20220;-69
2023/10/15 12:34:02;;;;;;;1.10;1.00;;;19.60;73.40;;;;;;4998637;28;20195;-69
2023/10/15 12:36:28;;;;;;;1.27;1.00;;;19.60;74.00;;;;;;5002661;28;20188;-69
2023/10/15 12:38:56;;;;;;;3.28;1.10;;;19.60;73.30;;;;;;5001108;28;20188;-69
2023/10/15 12:41:25;;;;;;;2.33;1.20;;;19.60;73.30;;;;;;5001312;28;20243;-68
2023/10/15 12:43:58;;;;;;;1.05;0.93;;;19.60;73.20;;;;;;5008505;28;20192;-69
2023/10/15 12:46:26;;;;;;;1.00;0.82;;;19.70;73.40;;;;;;5000473;28;20612;-69
2023/10/15 12:48:52;;;;;;;1.73;1.13;;;19.70;73.40;;;;;;4984441;28;20184;-69
2023/10/15 12:51:19;;;;;;;2.20;1.00;;;19.60;73.20;;;;;;4993236;28;20209;-69
2023/10/15 12:53:46;;;;;;;1.15;1.00;;;19.60;73.20;;;;;;5000738;28;20215;-69
2023/10/15 12:56:12;;;;;;;1.33;1.13;;;19.60;73.30;;;;;;4982928;28;20224;-69
2023/10/15 12:58:38;;;;;;;1.88;0.95;;;19.60;73.20;;;;;;4971558;28;20223;-69
2023/10/15 13:01:05;;;;;;;1.30;1.10;;;19.60;73.40;;;;;;4982901;28;20224;-69
2023/10/15 13:03:32;;;;;;;1.20;1.00;;;19.60;73.40;;;;;;4977393;28;20185;-69
2023/10/15 13:05:58;;;;;;;2.97;0.98;;;19.60;73.30;;;;;;4983703;28;20219;-69
2023/10/15 13:08:24;;;;;;;2.10;1.02;;;19.60;73.30;;;;;;4997369;28;20194;-69
2023/10/15 13:10:51;;;;;;;1.00;0.90;;;19.60;73.30;;;;;;4981855;28;20209;-69
2023/10/15 13:13:16;;;;;;;1.38;0.90;;;19.60;73.30;;;;;;4979818;28;20276;-69
2023/10/15 13:15:42;;;;;;;0.80;0.70;;;19.70;73.30;;;;;;4987560;28;20276;-69